You are listening to:
YSSY ATIS - Sydney, New South Wales, Australia

YSSY 231430Z AUTO 28003KT 9999 // NCD 09/07 Q1021 RF00.0/000.6

If stream doesn't start automatically press the play button
If stream stops then reload player then press play